createdAt,value
2023-03-11T00:01:27.740Z,60.03
2023-03-11T00:03:35.229Z,59.28
2023-03-11T00:05:45.833Z,62.22
2023-03-11T00:07:53.377Z,62.47
2023-03-11T00:10:00.564Z,66.10
2023-03-11T00:12:08.622Z,62.53
2023-03-11T00:14:15.851Z,57.08
2023-03-11T00:16:23.008Z,57.42
2023-03-11T00:18:32.531Z,56.97
2023-03-11T00:20:40.624Z,57.17
2023-03-11T00:22:49.798Z,62.03
2023-03-11T00:24:56.769Z,61.13
2023-03-11T00:27:04.059Z,61.20
2023-03-11T00:29:11.141Z,58.92
2023-03-11T00:31:18.563Z,60.30
2023-03-11T00:33:25.865Z,59.60
2023-03-11T00:35:35.648Z,60.25
2023-03-11T00:37:43.039Z,60.42
2023-03-11T00:39:52.470Z,61.05
2023-03-11T00:41:59.758Z,57.65
2023-03-11T00:44:06.963Z,56.00
2023-03-11T00:46:14.280Z,54.72
2023-03-11T00:48:21.145Z,51.72
2023-03-11T00:50:30.333Z,48.90
2023-03-11T00:52:37.301Z,46.97
2023-03-11T00:54:44.841Z,46.83
2023-03-11T00:56:54.535Z,48.75
2023-03-11T00:59:01.918Z,46.13
2023-03-11T01:01:12.046Z,46.47
2023-03-11T01:03:19.506Z,45.97
2023-03-11T01:05:30.896Z,48.72
2023-03-11T01:07:38.328Z,48.13
2023-03-11T01:09:45.407Z,46.42
2023-03-11T01:11:55.350Z,47.35
2023-03-11T01:14:02.378Z,47.83
2023-03-11T01:16:10.368Z,45.78
2023-03-11T01:18:17.510Z,43.85
2023-03-11T01:20:25.358Z,45.63
2023-03-11T01:22:32.280Z,45.33
2023-03-11T01:24:39.614Z,43.58
2023-03-11T01:26:46.393Z,44.55
2023-03-11T01:28:55.313Z,43.22
2023-03-11T01:31:02.499Z,55.85
2023-03-11T01:33:15.206Z,50.88
2023-03-11T01:35:24.300Z,46.53
2023-03-11T01:37:33.909Z,42.35
2023-03-11T01:39:40.946Z,44.17
2023-03-11T01:41:48.339Z,45.30
2023-03-11T01:43:58.696Z,45.30
2023-03-11T01:46:16.271Z,47.22
2023-03-11T01:48:24.636Z,44.40
2023-03-11T01:50:38.304Z,43.85
2023-03-11T01:52:47.740Z,42.70
2023-03-11T01:54:54.723Z,43.00
2023-03-11T01:57:02.717Z,45.17
2023-03-11T01:59:14.505Z,44.15
2023-03-11T02:01:22.531Z,43.67
2023-03-11T02:03:33.210Z,39.95
2023-03-11T02:05:41.325Z,42.30
2023-03-11T02:07:49.836Z,41.45
2023-03-11T02:09:58.662Z,40.65
2023-03-11T02:12:06.044Z,41.38
2023-03-11T02:14:15.173Z,40.83
2023-03-11T02:16:22.239Z,42.28
2023-03-11T02:18:30.869Z,41.72
2023-03-11T02:20:47.371Z,42.63
2023-03-11T02:22:58.187Z,41.17
2023-03-11T02:25:10.467Z,42.10
2023-03-11T02:27:23.253Z,42.58
2023-03-11T02:29:31.662Z,42.70
2023-03-11T02:31:43.117Z,41.22
2023-03-11T02:33:55.090Z,40.90
2023-03-11T02:36:02.643Z,39.80
2023-03-11T02:38:09.769Z,39.28
2023-03-11T02:40:44.746Z,40.15
2023-03-11T02:42:54.896Z,41.17
2023-03-11T02:45:07.811Z,41.58
2023-03-11T02:47:15.465Z,42.13
2023-03-11T02:49:23.814Z,40.13
2023-03-11T02:51:31.155Z,38.83
2023-03-11T02:53:42.372Z,39.33
2023-03-11T02:55:50.440Z,37.70
2023-03-11T02:57:59.240Z,39.17
2023-03-11T03:00:09.753Z,38.03
2023-03-11T03:02:18.162Z,38.72
2023-03-11T03:04:25.827Z,40.60
2023-03-11T03:06:32.934Z,40.78
2023-03-11T03:08:40.319Z,39.72
2023-03-11T03:10:48.221Z,39.67
2023-03-11T03:12:55.705Z,38.20
2023-03-11T03:15:04.474Z,37.90
2023-03-11T03:17:12.030Z,36.72
2023-03-11T03:19:19.358Z,38.03
2023-03-11T03:21:26.638Z,39.17
2023-03-11T03:23:36.378Z,37.40
2023-03-11T03:25:46.676Z,38.17
2023-03-11T03:27:53.867Z,38.45
2023-03-11T03:30:03.301Z,38.45
2023-03-11T03:32:11.798Z,39.25
2023-03-11T03:34:19.612Z,39.45
2023-03-11T03:36:27.044Z,40.33
2023-03-11T03:38:40.040Z,40.22
2023-03-11T03:40:51.033Z,38.63
2023-03-11T03:43:01.336Z,40.22
2023-03-11T03:45:13.333Z,40.10
2023-03-11T03:47:21.026Z,39.90
2023-03-11T03:49:28.515Z,38.03
2023-03-11T03:51:36.909Z,37.53
2023-03-11T03:53:52.199Z,37.80
2023-03-11T03:55:59.433Z,37.00
2023-03-11T03:58:07.022Z,37.95
2023-03-11T04:00:18.663Z,39.47
2023-03-11T04:02:32.308Z,39.58
2023-03-11T04:04:41.218Z,39.85
2023-03-11T04:06:49.577Z,39.85
2023-03-11T04:08:59.268Z,38.00
2023-03-11T04:11:09.778Z,40.83
2023-03-11T04:13:17.009Z,37.78
2023-03-11T04:15:27.059Z,40.38
2023-03-11T04:17:34.136Z,40.20
2023-03-11T04:19:42.243Z,37.60
2023-03-11T04:21:51.789Z,33.47
2023-03-11T04:24:01.062Z,32.65
2023-03-11T04:26:12.966Z,32.50
2023-03-11T04:28:21.210Z,30.35
2023-03-11T04:30:29.921Z,29.42
2023-03-11T04:32:38.379Z,33.03
2023-03-11T04:34:45.619Z,30.08
2023-03-11T04:36:56.585Z,31.42
2023-03-11T04:39:08.638Z,32.17
2023-03-11T04:41:21.245Z,31.42
2023-03-11T04:43:28.577Z,32.15
2023-03-11T04:45:38.057Z,32.28
2023-03-11T04:47:45.342Z,30.98
2023-03-11T04:49:52.625Z,29.48
2023-03-11T04:51:59.709Z,29.73
2023-03-11T04:54:06.996Z,31.95
2023-03-11T04:56:14.022Z,30.80
2023-03-11T04:58:22.067Z,30.35
2023-03-11T05:00:28.944Z,30.02
2023-03-11T05:02:46.674Z,29.83
2023-03-11T05:04:54.372Z,29.73
2023-03-11T05:07:01.448Z,30.10
2023-03-11T05:09:09.858Z,29.95
2023-03-11T05:11:19.598Z,30.63
2023-03-11T05:13:28.318Z,30.95
2023-03-11T05:15:35.656Z,29.83
2023-03-11T05:17:44.997Z,30.92
2023-03-11T05:19:51.959Z,30.67
2023-03-11T05:22:07.641Z,29.92
2023-03-11T05:24:15.078Z,30.35
2023-03-11T05:26:22.566Z,30.73
2023-03-11T05:28:29.647Z,30.10
2023-03-11T05:30:37.087Z,30.20
2023-03-11T05:32:48.407Z,30.48
2023-03-11T05:34:57.949Z,31.20
2023-03-11T05:37:05.132Z,30.92
2023-03-11T05:39:13.548Z,29.20
2023-03-11T05:41:21.390Z,29.67
2023-03-11T05:43:28.839Z,29.60
2023-03-11T05:45:35.708Z,29.38
2023-03-11T05:47:43.349Z,30.05
2023-03-11T05:49:54.476Z,30.05
2023-03-11T05:52:03.195Z,32.97
2023-03-11T05:54:16.065Z,30.63
2023-03-11T05:56:28.049Z,30.50
2023-03-11T05:58:36.461Z,30.63
2023-03-11T06:00:44.053Z,30.92
2023-03-11T06:02:51.194Z,29.00
2023-03-11T06:05:01.258Z,30.10
2023-03-11T06:07:08.869Z,29.80
2023-03-11T06:09:19.173Z,30.08
2023-03-11T06:11:26.846Z,30.77
2023-03-11T06:13:34.103Z,30.42
2023-03-11T06:15:41.787Z,31.52
2023-03-11T06:17:49.442Z,30.17
2023-03-11T06:19:57.422Z,29.83
2023-03-11T06:22:07.130Z,29.58
2023-03-11T06:24:14.011Z,30.75
2023-03-11T06:26:24.164Z,29.20
2023-03-11T06:28:32.922Z,29.85
2023-03-11T06:30:40.870Z,29.70
2023-03-11T06:32:51.502Z,29.55
2023-03-11T06:34:59.624Z,29.92
2023-03-11T06:37:08.514Z,29.30
2023-03-11T06:39:17.637Z,28.35
2023-03-11T06:41:27.840Z,29.13
2023-03-11T06:43:36.610Z,28.98
2023-03-11T06:45:44.932Z,29.77
2023-03-11T06:47:52.452Z,31.02
2023-03-11T06:50:00.765Z,29.98
2023-03-11T06:52:10.965Z,32.20
2023-03-11T06:54:18.709Z,30.50
2023-03-11T06:56:26.762Z,29.85
2023-03-11T06:58:43.890Z,30.02
2023-03-11T07:00:52.627Z,31.27
2023-03-11T07:02:59.981Z,31.60
2023-03-11T07:05:08.193Z,30.45
2023-03-11T07:07:17.317Z,31.90
2023-03-11T07:09:26.290Z,30.35
2023-03-11T07:11:33.521Z,30.45
2023-03-11T07:13:48.538Z,31.50
2023-03-11T07:16:04.219Z,32.05
2023-03-11T07:18:11.708Z,30.05
2023-03-11T07:20:19.087Z,30.90
2023-03-11T07:22:28.271Z,31.95
2023-03-11T07:24:35.453Z,31.23
2023-03-11T07:26:44.489Z,31.35
2023-03-11T07:28:52.172Z,31.15
2023-03-11T07:30:59.818Z,31.08
2023-03-11T07:33:06.845Z,31.30
2023-03-11T07:35:14.175Z,31.13
2023-03-11T07:37:21.155Z,30.52
2023-03-11T07:39:30.639Z,31.15
2023-03-11T07:41:39.116Z,31.38
2023-03-11T07:43:47.874Z,31.73
2023-03-11T07:45:56.115Z,30.92
2023-03-11T07:48:03.618Z,29.73
2023-03-11T07:50:11.209Z,31.40
2023-03-11T07:52:18.643Z,31.00
2023-03-11T07:54:25.674Z,31.60
2023-03-11T07:56:36.235Z,29.98
2023-03-11T07:58:45.663Z,30.98
2023-03-11T08:00:53.411Z,32.03
2023-03-11T08:03:00.390Z,31.23
2023-03-11T08:05:07.672Z,30.33
2023-03-11T08:07:15.019Z,31.55
2023-03-11T08:09:22.137Z,30.15
2023-03-11T08:11:29.421Z,31.40
2023-03-11T08:13:38.550Z,31.17
2023-03-11T08:15:45.501Z,30.95
2023-03-11T08:17:52.762Z,32.70
2023-03-11T08:19:59.837Z,31.40
2023-03-11T08:22:07.480Z,31.42
2023-03-11T08:24:16.137Z,31.08
2023-03-11T08:26:24.762Z,31.25
2023-03-11T08:28:31.689Z,32.13
2023-03-11T08:30:42.014Z,31.88
2023-03-11T08:32:50.273Z,31.85
2023-03-11T08:34:57.535Z,32.30
2023-03-11T08:37:04.464Z,32.15
2023-03-11T08:39:12.346Z,31.92
2023-03-11T08:41:19.898Z,31.80
2023-03-11T08:43:26.825Z,31.15
2023-03-11T08:45:34.463Z,30.73
2023-03-11T08:47:43.748Z,31.00
2023-03-11T08:49:50.980Z,32.13
2023-03-11T08:51:58.041Z,31.08
2023-03-11T08:54:06.125Z,31.75
2023-03-11T08:56:13.339Z,32.33
2023-03-11T08:58:20.731Z,30.90
2023-03-11T09:00:27.856Z,31.83
2023-03-11T09:02:35.063Z,33.22
2023-03-11T09:04:44.221Z,32.42
2023-03-11T09:06:51.710Z,31.38
2023-03-11T09:08:58.891Z,30.33
2023-03-11T09:11:06.685Z,33.20
2023-03-11T09:13:13.903Z,31.70
2023-03-11T09:15:21.558Z,32.95
2023-03-11T09:17:29.174Z,35.35
2023-03-11T09:19:36.643Z,33.97
2023-03-11T09:21:45.298Z,33.67
2023-03-11T09:23:52.692Z,33.65
2023-03-11T09:25:59.772Z,35.47
2023-03-11T09:28:07.118Z,34.50
2023-03-11T09:30:15.173Z,33.95
2023-03-11T09:32:22.575Z,34.88
2023-03-11T09:34:29.782Z,35.90
2023-03-11T09:36:37.113Z,37.45
2023-03-11T09:38:46.594Z,38.78
2023-03-11T09:41:03.051Z,39.47
2023-03-11T09:43:20.470Z,39.65
2023-03-11T09:45:30.840Z,37.58
2023-03-11T09:47:52.858Z,38.15
2023-03-11T09:50:17.804Z,34.97
2023-03-11T09:52:31.134Z,32.00
2023-03-11T09:54:43.484Z,33.30
2023-03-11T09:56:50.718Z,32.97
2023-03-11T09:59:03.324Z,32.30
2023-03-11T10:01:20.273Z,32.15
2023-03-11T10:03:34.684Z,32.80
2023-03-11T10:05:45.569Z,31.80
2023-03-11T10:07:58.621Z,33.42
2023-03-11T10:10:08.056Z,34.42
2023-03-11T10:12:24.863Z,33.30
2023-03-11T10:14:48.640Z,34.28
2023-03-11T10:17:04.774Z,32.72
2023-03-11T10:19:23.835Z,34.60
2023-03-11T10:21:44.894Z,32.72
2023-03-11T10:24:07.950Z,32.05
2023-03-11T10:26:22.811Z,33.03
2023-03-11T10:28:35.776Z,32.42
2023-03-11T10:30:48.088Z,33.95
2023-03-11T10:33:00.225Z,34.25
2023-03-11T10:35:18.518Z,33.95
2023-03-11T10:37:46.249Z,32.85
2023-03-11T10:39:56.944Z,33.38
2023-03-11T10:42:07.758Z,32.50
2023-03-11T10:44:19.396Z,31.33
2023-03-11T10:46:30.383Z,33.08
2023-03-11T10:48:38.162Z,32.22
2023-03-11T10:50:53.542Z,32.35
2023-03-11T10:53:11.881Z,33.03
2023-03-11T10:55:22.179Z,33.78
2023-03-11T10:57:33.460Z,34.03
2023-03-11T10:59:51.653Z,33.43
2023-03-11T11:02:00.323Z,33.00
2023-03-11T11:04:07.217Z,33.30
2023-03-11T11:06:25.026Z,33.53
2023-03-11T11:08:32.106Z,33.97
2023-03-11T11:10:40.210Z,34.17
2023-03-11T11:13:00.396Z,33.58
2023-03-11T11:15:08.603Z,34.38
2023-03-11T11:17:23.816Z,32.63
2023-03-11T11:19:31.990Z,34.55
2023-03-11T11:21:41.312Z,33.63
2023-03-11T11:23:53.463Z,32.35
2023-03-11T11:26:02.893Z,34.88
2023-03-11T11:28:21.132Z,36.08
2023-03-11T11:30:29.097Z,35.92
2023-03-11T11:32:36.679Z,36.13
2023-03-11T11:34:45.033Z,36.22
2023-03-11T11:36:52.623Z,35.67
2023-03-11T11:39:00.212Z,35.70
2023-03-11T11:41:08.931Z,36.75
2023-03-11T11:43:21.335Z,35.80
2023-03-11T11:45:40.910Z,37.45
2023-03-11T11:47:51.622Z,35.65
2023-03-11T11:50:02.287Z,37.37
2023-03-11T11:52:12.537Z,36.72
2023-03-11T11:54:23.204Z,38.03
2023-03-11T11:56:30.488Z,37.30
2023-03-11T11:58:39.508Z,39.22
2023-03-11T12:00:56.479Z,37.85
2023-03-11T12:03:21.987Z,36.80
2023-03-11T12:05:33.697Z,38.95
2023-03-11T12:08:01.229Z,38.47
2023-03-11T12:10:23.650Z,39.90
2023-03-11T12:12:36.897Z,42.38
2023-03-11T12:14:50.980Z,42.90
2023-03-11T12:17:04.047Z,41.58
2023-03-11T12:19:21.734Z,41.90
2023-03-11T12:21:51.644Z,40.78
2023-03-11T12:24:14.393Z,40.95
2023-03-11T12:26:25.064Z,43.70
2023-03-11T12:28:41.304Z,43.83
2023-03-11T12:30:53.650Z,44.63
2023-03-11T12:33:04.574Z,48.65
2023-03-11T12:35:22.815Z,45.95
2023-03-11T12:37:29.944Z,45.85
2023-03-11T12:39:38.098Z,46.55
2023-03-11T12:41:45.435Z,44.58
2023-03-11T12:44:25.537Z,45.92
2023-03-11T12:47:06.152Z,46.97
2023-03-11T12:49:16.406Z,47.40
2023-03-11T12:51:45.091Z,46.72
2023-03-11T12:53:53.144Z,48.50
2023-03-11T12:56:08.317Z,48.67
2023-03-11T12:58:56.044Z,47.20
2023-03-11T13:01:20.606Z,46.00
2023-03-11T13:03:52.445Z,48.22
2023-03-11T13:06:07.411Z,47.10
2023-03-11T13:08:18.383Z,47.75
2023-03-11T13:10:39.398Z,48.70
2023-03-11T13:12:48.156Z,46.97
2023-03-11T13:15:33.228Z,48.03
2023-03-11T13:17:41.178Z,50.53
2023-03-11T13:19:57.836Z,49.60
2023-03-11T13:22:06.452Z,48.13
2023-03-11T13:24:44.814Z,48.97
2023-03-11T13:26:54.266Z,50.33
2023-03-11T13:29:39.372Z,50.42
2023-03-11T13:32:12.540Z,49.30
2023-03-11T13:34:27.571Z,47.53
2023-03-11T13:36:53.442Z,50.13
2023-03-11T13:39:35.082Z,50.22
2023-03-11T13:41:46.872Z,51.63
2023-03-11T13:43:55.835Z,49.53
2023-03-11T13:46:07.430Z,47.80
2023-03-11T13:48:20.656Z,48.03
2023-03-11T13:50:34.134Z,48.00
2023-03-11T13:52:50.636Z,47.88
2023-03-11T13:55:04.216Z,47.00
2023-03-11T13:57:25.137Z,48.38
2023-03-11T13:59:33.786Z,46.63
2023-03-11T14:01:41.020Z,47.05
2023-03-11T14:03:49.353Z,48.33
2023-03-11T14:06:04.088Z,54.35
2023-03-11T14:08:29.864Z,55.90
2023-03-11T14:10:37.137Z,54.83
2023-03-11T14:12:44.012Z,52.42
2023-03-11T14:14:58.411Z,52.70
2023-03-11T14:17:07.281Z,53.22
2023-03-11T14:19:19.173Z,57.85
2023-03-11T14:21:26.967Z,56.42
2023-03-11T14:23:39.426Z,54.97
2023-03-11T14:25:46.604Z,54.50
2023-03-11T14:27:58.854Z,55.40
2023-03-11T14:30:05.836Z,58.08
2023-03-11T14:32:30.418Z,55.20
2023-03-11T14:34:44.157Z,56.20
2023-03-11T14:36:55.289Z,55.45
2023-03-11T14:39:03.997Z,56.07
2023-03-11T14:41:15.181Z,55.75
2023-03-11T14:43:24.609Z,65.90
2023-03-11T14:45:34.976Z,58.53
2023-03-11T14:47:44.907Z,59.83
2023-03-11T14:49:53.676Z,61.78
2023-03-11T14:52:04.854Z,71.32
2023-03-11T14:54:21.094Z,74.28
2023-03-11T14:56:30.631Z,69.93
2023-03-11T14:58:40.343Z,67.38
2023-03-11T15:00:52.232Z,78.35
2023-03-11T15:03:15.099Z,71.28
2023-03-11T15:05:27.927Z,62.88
2023-03-11T15:07:35.520Z,64.28
2023-03-11T15:09:46.436Z,61.75
2023-03-11T15:11:56.235Z,72.05
2023-03-11T15:14:20.256Z,64.07
2023-03-11T15:16:32.668Z,62.75
2023-03-11T15:20:47.382Z,66.32
2023-03-11T15:23:03.420Z,62.83
2023-03-11T15:25:21.617Z,63.50
2023-03-11T15:27:34.479Z,63.47
2023-03-11T15:29:41.670Z,60.10
2023-03-11T15:31:49.404Z,63.28
2023-03-11T15:33:57.825Z,62.55
2023-03-11T15:36:04.768Z,60.83
2023-03-11T15:38:24.725Z,59.83
2023-03-11T15:40:45.340Z,61.55
2023-03-11T15:43:10.629Z,58.90
2023-03-11T15:45:22.031Z,61.53
2023-03-11T15:47:29.512Z,66.80
2023-03-11T15:49:37.091Z,67.75
2023-03-11T15:51:44.496Z,66.30
2023-03-11T15:53:51.705Z,63.00
2023-03-11T15:56:07.900Z,61.53
2023-03-11T15:58:17.740Z,61.03
2023-03-11T16:00:26.559Z,61.83
2023-03-11T16:02:35.124Z,61.45
2023-03-11T16:04:42.464Z,63.20
2023-03-11T16:06:59.593Z,62.03
2023-03-11T16:09:14.486Z,62.80
2023-03-11T16:11:23.267Z,61.97
2023-03-11T16:13:30.638Z,62.10
2023-03-11T16:15:39.779Z,63.22
2023-03-11T16:17:50.067Z,65.05
2023-03-11T16:19:57.354Z,64.22
2023-03-11T16:22:05.559Z,63.33
2023-03-11T16:24:15.562Z,68.53
2023-03-11T16:26:26.175Z,71.25
2023-03-11T16:28:33.407Z,68.45
2023-03-11T16:30:40.587Z,66.47
2023-03-11T16:32:47.732Z,62.30
2023-03-11T16:34:55.168Z,67.55
2023-03-11T16:37:02.337Z,64.97
2023-03-11T16:39:09.625Z,64.93
2023-03-11T16:41:17.058Z,60.83
2023-03-11T16:43:25.878Z,63.10
2023-03-11T16:45:33.227Z,64.45
2023-03-11T16:47:40.548Z,66.40
2023-03-11T16:49:47.629Z,62.97
2023-03-11T16:51:55.130Z,62.83
2023-03-11T16:54:02.145Z,62.45
2023-03-11T16:56:10.353Z,59.88
2023-03-11T16:58:17.584Z,61.58
2023-03-11T17:00:26.915Z,61.00
2023-03-11T17:02:33.842Z,59.35
2023-03-11T17:04:41.194Z,59.05
2023-03-11T17:06:48.208Z,66.25
2023-03-11T17:08:55.696Z,64.07
2023-03-11T17:11:02.792Z,62.67
2023-03-11T17:13:10.317Z,60.97
2023-03-11T17:15:17.397Z,64.97
2023-03-11T17:17:26.832Z,59.90
2023-03-11T17:19:34.985Z,63.38
2023-03-11T17:21:42.372Z,62.15
2023-03-11T17:23:49.352Z,61.05
2023-03-11T17:25:56.684Z,57.78
2023-03-11T17:28:03.713Z,56.40
2023-03-11T17:30:12.746Z,57.35
2023-03-11T17:32:20.987Z,58.63
2023-03-11T17:34:30.053Z,57.17
2023-03-11T17:36:37.103Z,54.10
2023-03-11T17:38:44.577Z,56.10
2023-03-11T17:40:51.718Z,56.47
2023-03-11T17:42:59.206Z,54.50
2023-03-11T17:45:06.235Z,56.58
2023-03-11T17:47:13.879Z,54.15
2023-03-11T17:49:21.827Z,54.30
2023-03-11T17:51:32.132Z,52.78
2023-03-11T17:53:39.163Z,52.85
2023-03-11T17:55:46.393Z,54.08
2023-03-11T17:57:53.520Z,53.58
2023-03-11T18:00:06.905Z,55.00
2023-03-11T18:02:17.061Z,54.85
2023-03-11T18:04:24.386Z,54.25
2023-03-11T18:06:33.255Z,54.38
2023-03-11T18:08:41.457Z,53.65
2023-03-11T18:10:53.757Z,51.33
2023-03-11T18:13:01.040Z,53.33
2023-03-11T18:15:15.288Z,51.70
2023-03-11T18:17:22.632Z,51.13
2023-03-11T18:19:29.753Z,52.80
2023-03-11T18:21:38.779Z,58.13
2023-03-11T18:23:45.960Z,58.67
2023-03-11T18:25:56.470Z,56.95
2023-03-11T18:28:04.894Z,53.88
2023-03-11T18:30:14.221Z,54.60
2023-03-11T18:32:21.845Z,58.55
2023-03-11T18:34:29.343Z,57.53
2023-03-11T18:36:40.213Z,53.22
2023-03-11T18:38:48.620Z,57.55
2023-03-11T18:41:00.719Z,56.17
2023-03-11T18:43:08.774Z,58.63
2023-03-11T18:45:16.053Z,56.60
2023-03-11T18:47:23.033Z,57.13
2023-03-11T18:49:31.347Z,55.85
2023-03-11T18:51:39.955Z,54.92
2023-03-11T18:53:47.391Z,54.70
2023-03-11T18:55:54.883Z,52.70
2023-03-11T18:58:01.806Z,52.35
2023-03-11T19:00:09.758Z,51.63
2023-03-11T19:02:16.895Z,51.67
2023-03-11T19:04:24.177Z,51.15
2023-03-11T19:06:32.279Z,52.05
2023-03-11T19:08:41.663Z,52.28
2023-03-11T19:10:49.255Z,52.58
2023-03-11T19:12:56.743Z,49.45
2023-03-11T19:15:03.773Z,52.00
2023-03-11T19:17:13.120Z,50.55
2023-03-11T19:19:20.187Z,51.90
2023-03-11T19:21:28.717Z,51.90
2023-03-11T19:23:37.004Z,50.45
2023-03-11T19:26:00.677Z,52.30
2023-03-11T19:28:11.856Z,49.58
2023-03-11T19:30:19.287Z,50.40
2023-03-11T19:32:26.548Z,51.25
2023-03-11T19:34:33.514Z,50.25
2023-03-11T19:36:40.598Z,51.50
2023-03-11T19:38:47.775Z,51.63
2023-03-11T19:41:04.465Z,49.08
2023-03-11T19:43:13.325Z,48.47
2023-03-11T19:45:20.616Z,49.72
2023-03-11T19:47:28.137Z,53.20
2023-03-11T19:49:35.595Z,50.33
2023-03-11T19:51:50.154Z,50.53
2023-03-11T19:53:57.909Z,50.85
2023-03-11T19:56:07.742Z,50.97
2023-03-11T19:58:15.306Z,49.42
2023-03-11T20:00:23.278Z,51.65
2023-03-11T20:02:30.700Z,50.08
2023-03-11T20:04:37.831Z,51.90
2023-03-11T20:06:45.190Z,48.38
2023-03-11T20:08:52.547Z,51.60
2023-03-11T20:11:06.545Z,49.53
2023-03-11T20:13:13.892Z,50.35
2023-03-11T20:15:21.606Z,48.03
2023-03-11T20:17:28.921Z,48.25
2023-03-11T20:19:36.516Z,47.85
2023-03-11T20:21:45.714Z,45.38
2023-03-11T20:23:53.283Z,46.67
2023-03-11T20:26:00.196Z,47.05
2023-03-11T20:28:09.232Z,46.40
2023-03-11T20:30:17.747Z,43.95
2023-03-11T20:32:25.558Z,46.20
2023-03-11T20:34:32.536Z,45.47
2023-03-11T20:36:39.903Z,44.33
2023-03-11T20:38:47.170Z,45.17
2023-03-11T20:40:59.595Z,43.63
2023-03-11T20:43:08.466Z,43.55
2023-03-11T20:45:17.247Z,42.20
2023-03-11T20:47:24.334Z,43.60
2023-03-11T20:49:31.665Z,42.63
2023-03-11T20:51:41.357Z,42.10
2023-03-11T20:53:49.049Z,41.55
2023-03-11T20:55:56.546Z,41.30
2023-03-11T20:58:03.586Z,42.38
2023-03-11T21:00:14.892Z,41.95
2023-03-11T21:02:22.316Z,42.55
2023-03-11T21:04:29.730Z,41.22
2023-03-11T21:06:38.138Z,41.42
2023-03-11T21:08:45.531Z,41.42
2023-03-11T21:10:52.530Z,41.70
2023-03-11T21:12:59.976Z,41.75
2023-03-11T21:15:08.526Z,41.42
2023-03-11T21:17:18.683Z,40.67
2023-03-11T21:19:25.709Z,41.38
2023-03-11T21:21:33.068Z,41.28
2023-03-11T21:23:40.165Z,40.63
2023-03-11T21:25:47.458Z,39.60
2023-03-11T21:27:54.538Z,40.47
2023-03-11T21:30:02.994Z,40.85
2023-03-11T21:32:10.487Z,39.42
2023-03-11T21:34:19.493Z,41.08
2023-03-11T21:36:27.232Z,41.50
2023-03-11T21:38:35.171Z,39.90
2023-03-11T21:40:42.259Z,39.60
2023-03-11T21:42:49.671Z,40.03
2023-03-11T21:44:56.647Z,40.30
2023-03-11T21:47:04.196Z,41.38
2023-03-11T21:49:11.519Z,41.30
2023-03-11T21:51:21.916Z,41.13
2023-03-11T21:53:29.168Z,40.53
2023-03-11T21:55:37.349Z,41.95
2023-03-11T21:57:44.527Z,38.47
2023-03-11T21:59:52.221Z,39.83
2023-03-11T22:02:02.241Z,39.08
2023-03-11T22:04:09.903Z,39.45
2023-03-11T22:06:18.854Z,42.13
2023-03-11T22:08:26.026Z,43.20
2023-03-11T22:10:34.070Z,42.40
2023-03-11T22:12:41.481Z,42.17
2023-03-11T22:14:51.611Z,40.90
2023-03-11T22:16:59.089Z,41.13
2023-03-11T22:19:09.771Z,42.38
2023-03-11T22:21:19.884Z,44.28
2023-03-11T22:23:26.955Z,43.45
2023-03-11T22:25:34.346Z,43.33
2023-03-11T22:27:41.731Z,42.33
2023-03-11T22:29:48.913Z,41.17
2023-03-11T22:31:55.814Z,40.15
2023-03-11T22:34:03.121Z,40.67
2023-03-11T22:36:11.112Z,42.83
2023-03-11T22:38:20.101Z,42.60
2023-03-11T22:40:27.238Z,42.83
2023-03-11T22:42:34.420Z,42.78
2023-03-11T22:44:41.648Z,46.75
2023-03-11T22:46:49.033Z,45.75
2023-03-11T22:48:55.960Z,44.25
2023-03-11T22:51:03.299Z,44.60
2023-03-11T22:53:10.468Z,43.95
2023-03-11T22:55:19.501Z,46.88
2023-03-11T22:57:26.479Z,44.67
2023-03-11T22:59:33.711Z,45.28
2023-03-11T23:01:40.691Z,47.67
2023-03-11T23:03:48.225Z,48.63
2023-03-11T23:05:55.154Z,49.17
2023-03-11T23:08:02.612Z,45.47
2023-03-11T23:10:11.310Z,44.00
2023-03-11T23:12:20.078Z,44.92
2023-03-11T23:14:37.819Z,44.70
2023-03-11T23:16:49.455Z,49.17
2023-03-11T23:18:58.264Z,47.60
2023-03-11T23:21:05.552Z,44.38
2023-03-11T23:23:12.984Z,44.60
2023-03-11T23:25:20.574Z,44.30
2023-03-11T23:27:29.399Z,44.97
2023-03-11T23:29:36.934Z,43.97
2023-03-11T23:31:43.963Z,44.28
2023-03-11T23:33:51.554Z,45.10
2023-03-11T23:36:02.811Z,43.05
2023-03-11T23:38:10.155Z,43.40
2023-03-11T23:40:17.553Z,42.63
2023-03-11T23:42:26.328Z,43.75
2023-03-11T23:44:35.296Z,42.75
2023-03-11T23:46:42.477Z,43.60
2023-03-11T23:48:49.304Z,41.42
2023-03-11T23:50:56.692Z,41.35
2023-03-11T23:53:03.616Z,41.60
2023-03-11T23:55:12.186Z,41.17
2023-03-11T23:57:19.284Z,42.95
2023-03-11T23:59:26.438Z,43.33
